createdAt,value
2022-08-25T00:01:55.789Z,101094.56
2022-08-25T00:04:23.497Z,101096.19
2022-08-25T00:06:50.961Z,101092.03
2022-08-25T00:09:20.434Z,101109.94
2022-08-25T00:11:49.309Z,101097.50
2022-08-25T00:14:26.417Z,101096.09
2022-08-25T00:16:53.337Z,101094.97
2022-08-25T00:19:26.573Z,101087.78
2022-08-25T00:21:53.287Z,101092.97
2022-08-25T00:24:21.057Z,101096.00
2022-08-25T00:26:51.487Z,101094.88
2022-08-25T00:29:18.750Z,101098.97
2022-08-25T00:31:45.566Z,101101.16
2022-08-25T00:34:19.222Z,101105.84
2022-08-25T00:36:47.189Z,101101.94
2022-08-25T00:39:14.301Z,101098.63
2022-08-25T00:41:43.602Z,101096.94
2022-08-25T00:44:13.299Z,101105.75
2022-08-25T00:46:44.164Z,101111.53
2022-08-25T00:49:24.919Z,101105.44
2022-08-25T00:52:13.189Z,101105.97
2022-08-25T00:54:45.708Z,101107.31
2022-08-25T00:57:16.694Z,101113.38
2022-08-25T00:59:44.435Z,101115.53
2022-08-25T01:02:13.639Z,101116.06
2022-08-25T01:04:48.673Z,101111.06
2022-08-25T01:07:18.603Z,101112.41
2022-08-25T01:09:47.733Z,101115.44
2022-08-25T01:12:14.223Z,101110.44
2022-08-25T01:14:41.168Z,101107.34
2022-08-25T01:17:07.678Z,101104.28
2022-08-25T01:19:34.134Z,101106.47
2022-08-25T01:22:00.949Z,101103.63
2022-08-25T01:24:38.870Z,101106.66
2022-08-25T01:27:07.129Z,101103.56
2022-08-25T01:29:34.259Z,101111.53
2022-08-25T01:32:05.294Z,101108.19
2022-08-25T01:34:35.169Z,101107.06
2022-08-25T01:37:02.234Z,101108.66
2022-08-25T01:39:31.425Z,101102.25
2022-08-25T01:42:04.668Z,101105.25
2022-08-25T01:44:31.934Z,101110.97
2022-08-25T01:46:58.409Z,101110.63
2022-08-25T01:49:25.116Z,101097.66
2022-08-25T01:51:56.618Z,101104.16
2022-08-25T01:54:23.713Z,101104.66
2022-08-25T01:56:50.186Z,101103.78
2022-08-25T01:59:24.370Z,101105.34
2022-08-25T02:01:57.502Z,101097.88
2022-08-25T02:04:26.934Z,101100.25
2022-08-25T02:06:53.450Z,101098.28
2022-08-25T02:09:19.864Z,101096.03
2022-08-25T02:11:47.871Z,101101.22
2022-08-25T02:14:15.658Z,101093.72
2022-08-25T02:16:46.529Z,101090.13
2022-08-25T02:19:13.046Z,101099.13
2022-08-25T02:21:39.995Z,101096.06
2022-08-25T02:24:07.622Z,101093.81
2022-08-25T02:26:34.717Z,101093.22
2022-08-25T02:29:01.250Z,101091.81
2022-08-25T02:31:27.874Z,101095.66
2022-08-25T02:33:55.147Z,101095.06
2022-08-25T02:36:23.232Z,101085.41
2022-08-25T02:38:50.862Z,101093.91
2022-08-25T02:41:21.486Z,101085.09
2022-08-25T02:43:48.750Z,101085.34
2022-08-25T02:46:17.544Z,101088.31
2022-08-25T02:48:44.528Z,101083.09
2022-08-25T02:51:12.299Z,101079.75
2022-08-25T02:53:40.506Z,101079.16
2022-08-25T02:56:11.073Z,101081.91
2022-08-25T02:58:38.685Z,101078.59
2022-08-25T03:01:06.835Z,101076.91
2022-08-25T03:03:38.820Z,101080.75
2022-08-25T03:06:08.546Z,101076.34
2022-08-25T03:08:36.258Z,101083.75
2022-08-25T03:11:03.822Z,101078.53
2022-08-25T03:13:30.337Z,101084.03
2022-08-25T03:15:56.780Z,101097.19
2022-08-25T03:18:23.211Z,101091.91
2022-08-25T03:20:51.131Z,101090.25
2022-08-25T03:23:17.928Z,101086.91
2022-08-25T03:26:02.955Z,101086.28
2022-08-25T03:28:33.077Z,101081.06
2022-08-25T03:31:03.207Z,101087.91
2022-08-25T03:33:30.658Z,101086.72
2022-08-25T03:35:58.227Z,101079.78
2022-08-25T03:38:25.522Z,101083.88
2022-08-25T03:40:53.316Z,101077.22
2022-08-25T03:43:20.578Z,101079.63
2022-08-25T03:45:48.105Z,101076.53
2022-08-25T03:48:16.141Z,101072.88
2022-08-25T03:50:52.261Z,101068.94
2022-08-25T03:53:20.059Z,101067.44
2022-08-25T03:55:47.437Z,101067.34
2022-08-25T03:58:14.018Z,101056.75
2022-08-25T04:00:40.869Z,101053.09
2022-08-25T04:03:07.742Z,101054.91
2022-08-25T04:05:34.229Z,101045.44
2022-08-25T04:08:01.899Z,101048.13
2022-08-25T04:10:28.982Z,101044.19
2022-08-25T04:12:56.183Z,101049.34
2022-08-25T04:15:24.021Z,101052.56
2022-08-25T04:17:55.312Z,101045.09
2022-08-25T04:20:21.950Z,101046.91
2022-08-25T04:22:48.498Z,101042.72
2022-08-25T04:25:15.017Z,101047.84
2022-08-25T04:27:41.862Z,101053.00
2022-08-25T04:30:09.022Z,101059.59
2022-08-25T04:32:36.899Z,101057.31
2022-08-25T04:35:05.296Z,101058.63
2022-08-25T04:37:31.817Z,101051.47
2022-08-25T04:39:58.311Z,101047.91
2022-08-25T04:42:26.364Z,101048.97
2022-08-25T04:44:54.383Z,101046.22
2022-08-25T04:47:28.320Z,101048.97
2022-08-25T04:49:57.127Z,101049.22
2022-08-25T04:52:29.517Z,101042.91
2022-08-25T04:54:56.710Z,101043.38
2022-08-25T04:57:23.261Z,101044.44
2022-08-25T04:59:49.892Z,101041.13
2022-08-25T05:02:16.321Z,101040.53
2022-08-25T05:04:42.904Z,101038.03
2022-08-25T05:07:09.371Z,101041.00
2022-08-25T05:09:36.478Z,101041.00
2022-08-25T05:12:04.608Z,101040.19
2022-08-25T05:14:32.375Z,101038.53
2022-08-25T05:16:59.445Z,101036.59
2022-08-25T05:19:26.785Z,101035.78
2022-08-25T05:21:54.086Z,101041.25
2022-08-25T05:24:22.107Z,101034.94
2022-08-25T05:26:48.594Z,101033.88
2022-08-25T05:29:15.694Z,101040.44
2022-08-25T05:31:48.238Z,101039.34
2022-08-25T05:34:15.006Z,101046.50
2022-08-25T05:36:43.528Z,101052.56
2022-08-25T05:39:10.996Z,101044.94
2022-08-25T05:41:37.685Z,101045.53
2022-08-25T05:44:04.375Z,101049.72
2022-08-25T05:46:31.829Z,101051.13
2022-08-25T05:48:58.997Z,101041.81
2022-08-25T05:51:26.303Z,101050.38
2022-08-25T05:53:53.002Z,101049.31
2022-08-25T05:56:20.063Z,101054.31
2022-08-25T05:58:47.020Z,101054.09
2022-08-25T06:01:45.104Z,101053.59
2022-08-25T06:04:12.427Z,101045.94
2022-08-25T06:06:39.738Z,101045.47
2022-08-25T06:09:10.227Z,101042.25
2022-08-25T06:11:39.998Z,101023.63
2022-08-25T06:14:12.492Z,101031.94
2022-08-25T06:16:40.337Z,101026.22
2022-08-25T06:19:09.147Z,101028.47
2022-08-25T06:21:37.352Z,101022.47
2022-08-25T06:24:04.114Z,101035.72
2022-08-25T06:26:30.692Z,101036.66
2022-08-25T06:28:57.338Z,101036.97
2022-08-25T06:31:23.932Z,101039.63
2022-08-25T06:33:51.595Z,101035.06
2022-08-25T06:36:19.226Z,101024.72
2022-08-25T06:38:46.452Z,101031.16
2022-08-25T06:41:13.025Z,101034.34
2022-08-25T06:43:48.116Z,101037.75
2022-08-25T06:46:17.887Z,101027.75
2022-08-25T06:48:44.472Z,101031.75
2022-08-25T06:51:14.080Z,101036.63
2022-08-25T06:53:41.583Z,101036.78
2022-08-25T06:56:08.688Z,101033.91
2022-08-25T06:58:35.910Z,101038.50
2022-08-25T07:01:27.009Z,101039.53
2022-08-25T07:03:57.619Z,101038.31
2022-08-25T07:06:25.756Z,101042.91
2022-08-25T07:08:52.322Z,101044.69
2022-08-25T07:11:21.414Z,101045.66
2022-08-25T07:13:48.783Z,101049.34
2022-08-25T07:16:16.014Z,101039.56
2022-08-25T07:18:44.180Z,101035.50
2022-08-25T07:21:12.376Z,101039.44
2022-08-25T07:23:40.148Z,101047.03
2022-08-25T07:26:37.436Z,101039.41
2022-08-25T07:29:09.645Z,101048.34
2022-08-25T07:31:36.337Z,101050.38
2022-08-25T07:34:23.273Z,101047.41
2022-08-25T07:36:49.717Z,101044.53
2022-08-25T07:39:17.590Z,101047.91
2022-08-25T07:41:48.842Z,101044.41
2022-08-25T07:44:19.460Z,101047.50
2022-08-25T07:46:45.977Z,101045.63
2022-08-25T07:49:12.758Z,101055.09
2022-08-25T07:51:55.219Z,101048.53
2022-08-25T07:54:33.903Z,101049.97
2022-08-25T07:57:01.455Z,101049.19
2022-08-25T07:59:28.063Z,101056.41
2022-08-25T08:01:54.591Z,101053.38
2022-08-25T08:04:21.096Z,101057.84
2022-08-25T08:06:47.605Z,101055.38
2022-08-25T08:09:14.136Z,101053.22
2022-08-25T08:11:53.752Z,101042.72
2022-08-25T08:14:21.307Z,101044.94
2022-08-25T08:16:48.063Z,101033.59
2022-08-25T08:19:15.006Z,101038.59
2022-08-25T08:21:41.925Z,101035.56
2022-08-25T08:24:19.777Z,101034.19
2022-08-25T08:26:58.958Z,101031.16
2022-08-25T08:29:26.341Z,101026.19
2022-08-25T08:31:53.397Z,101031.44
2022-08-25T08:34:20.189Z,101025.63
2022-08-25T08:36:51.686Z,101018.13
2022-08-25T08:39:18.407Z,101018.69
2022-08-25T08:42:18.132Z,101021.16
2022-08-25T08:44:44.673Z,101014.78
2022-08-25T08:47:27.299Z,101011.44
2022-08-25T08:50:06.298Z,101012.00
2022-08-25T08:52:54.642Z,101008.66
2022-08-25T08:55:30.304Z,101012.22
2022-08-25T08:57:59.724Z,100995.59
2022-08-25T09:00:27.890Z,101000.28
2022-08-25T09:02:58.678Z,100996.66
2022-08-25T09:05:28.730Z,100991.63
2022-08-25T09:08:11.796Z,100990.50
2022-08-25T09:11:10.930Z,100998.50
2022-08-25T09:14:01.903Z,100999.03
2022-08-25T09:17:02.965Z,100989.31
2022-08-25T09:19:49.515Z,100985.38
2022-08-25T09:22:35.256Z,100985.06
2022-08-25T09:28:24.040Z,100969.72
2022-08-25T09:30:59.484Z,100962.72
2022-08-25T09:33:27.886Z,100966.28
2022-08-25T09:35:57.539Z,100967.03
2022-08-25T09:38:26.273Z,100959.53
2022-08-25T09:40:57.958Z,100959.72
2022-08-25T09:43:32.210Z,100969.66
2022-08-25T09:46:27.809Z,100952.41
2022-08-25T09:48:57.831Z,100953.97
2022-08-25T09:51:38.333Z,100949.44
2022-08-25T09:54:12.575Z,100935.50
2022-08-25T09:57:05.549Z,100926.03
2022-08-25T09:59:37.179Z,100925.47
2022-08-25T10:02:22.055Z,100917.34
2022-08-25T10:04:48.540Z,100923.97
2022-08-25T10:07:51.924Z,100927.22
2022-08-25T10:10:28.147Z,100919.34
2022-08-25T10:13:01.250Z,100911.25
2022-08-25T10:15:36.039Z,100904.78
2022-08-25T10:18:21.194Z,100908.94
2022-08-25T10:21:07.533Z,100910.28
2022-08-25T10:23:38.687Z,100901.66
2022-08-25T10:26:14.443Z,100907.16
2022-08-25T10:28:54.028Z,100890.41
2022-08-25T10:31:46.451Z,100888.94
2022-08-25T10:34:20.533Z,100887.75
2022-08-25T10:37:03.253Z,100871.81
2022-08-25T10:39:36.691Z,100881.22
2022-08-25T10:42:39.737Z,100864.97
2022-08-25T10:45:43.261Z,100855.13
2022-08-25T10:48:34.664Z,100857.81
2022-08-25T10:51:25.395Z,100841.56
2022-08-25T10:54:06.218Z,100840.91
2022-08-25T10:56:42.011Z,100836.91
2022-08-25T10:59:19.274Z,100833.44
2022-08-25T11:02:16.524Z,100833.84
2022-08-25T11:04:59.756Z,100828.72
2022-08-25T11:07:34.697Z,100829.94
2022-08-25T11:10:09.839Z,100829.03
2022-08-25T11:12:47.025Z,100825.81
2022-08-25T11:15:21.010Z,100818.22
2022-08-25T11:18:04.612Z,100816.69
2022-08-25T11:20:51.922Z,100823.50
2022-08-25T11:23:35.330Z,100825.06
2022-08-25T11:26:13.550Z,100830.47
2022-08-25T11:28:59.162Z,100822.88
2022-08-25T11:31:27.723Z,100811.41
2022-08-25T11:33:56.506Z,100815.53
2022-08-25T11:36:35.756Z,100821.31
2022-08-25T11:39:34.397Z,100816.88
2022-08-25T11:42:20.881Z,100815.22
2022-08-25T11:45:07.699Z,100810.19
2022-08-25T11:47:48.038Z,100813.97
2022-08-25T11:50:25.889Z,100821.69
2022-08-25T11:53:18.676Z,100824.19
2022-08-25T11:55:56.872Z,100822.72
2022-08-25T11:58:46.618Z,100809.34
2022-08-25T12:01:32.457Z,100805.72
2022-08-25T12:04:44.932Z,100811.50
2022-08-25T12:07:22.172Z,100811.38
2022-08-25T12:09:51.685Z,100815.69
2022-08-25T12:12:46.738Z,100809.38
2022-08-25T12:15:31.741Z,100795.19
2022-08-25T12:18:14.062Z,100798.38
2022-08-25T12:20:54.231Z,100801.22
2022-08-25T12:23:44.955Z,100798.84
2022-08-25T12:26:32.935Z,100793.31
2022-08-25T12:29:14.865Z,100789.25
2022-08-25T12:32:04.915Z,100791.91
2022-08-25T12:34:54.180Z,100779.81
2022-08-25T12:37:23.612Z,100784.94
2022-08-25T12:39:50.114Z,100784.81
2022-08-25T12:42:35.409Z,100774.00
2022-08-25T12:45:10.312Z,100784.91
2022-08-25T12:47:37.776Z,100767.38
2022-08-25T12:50:46.229Z,100763.19
2022-08-25T12:53:33.960Z,100767.81
2022-08-25T12:56:05.110Z,100774.25
2022-08-25T12:59:00.238Z,100765.06
2022-08-25T13:02:03.183Z,100773.78
2022-08-25T13:05:11.525Z,100764.09
2022-08-25T13:07:58.433Z,100766.59
2022-08-25T13:11:09.495Z,100764.59
2022-08-25T13:14:00.389Z,100761.16
2022-08-25T13:16:30.097Z,100755.56
2022-08-25T13:18:59.419Z,100753.59
2022-08-25T13:21:42.498Z,100746.06
2022-08-25T13:24:14.569Z,100741.97
2022-08-25T13:26:48.343Z,100730.78
2022-08-25T13:29:20.443Z,100734.06
2022-08-25T13:32:09.618Z,100727.84
2022-08-25T13:34:42.916Z,100726.19
2022-08-25T13:37:30.589Z,100730.13
2022-08-25T13:40:11.949Z,100716.16
2022-08-25T13:42:49.008Z,100722.06
2022-08-25T13:45:24.885Z,100717.31
2022-08-25T13:47:56.128Z,100714.84
2022-08-25T13:50:26.346Z,100717.31
2022-08-25T13:52:56.334Z,100713.19
2022-08-25T13:55:50.800Z,100707.13
2022-08-25T13:58:39.458Z,100703.84
2022-08-25T14:01:48.312Z,100703.34
2022-08-25T14:04:23.040Z,100699.88
2022-08-25T14:07:07.383Z,100692.50
2022-08-25T14:09:45.451Z,100684.78
2022-08-25T14:15:16.734Z,100686.28
2022-08-25T14:17:48.814Z,100686.13
2022-08-25T14:20:27.114Z,100681.19
2022-08-25T14:22:58.119Z,100681.03
2022-08-25T14:25:26.770Z,100670.00
2022-08-25T14:28:06.915Z,100667.03
2022-08-25T14:30:36.297Z,100660.78
2022-08-25T14:33:04.042Z,100667.66
2022-08-25T14:35:31.425Z,100664.56
2022-08-25T14:37:58.195Z,100662.56
2022-08-25T14:40:24.835Z,100653.84
2022-08-25T14:42:51.479Z,100655.50
2022-08-25T14:45:19.524Z,100660.41
2022-08-25T14:47:49.662Z,100648.56
2022-08-25T14:50:20.158Z,100654.34
2022-08-25T14:52:48.287Z,100651.19
2022-08-25T14:55:30.785Z,100655.81
2022-08-25T14:57:58.650Z,100661.53
2022-08-25T15:00:26.042Z,100661.53
2022-08-25T15:02:52.978Z,100652.66
2022-08-25T15:05:24.665Z,100652.19
2022-08-25T15:08:12.148Z,100652.34
2022-08-25T15:10:39.671Z,100650.88
2022-08-25T15:13:07.255Z,100637.75
2022-08-25T15:15:38.611Z,100643.38
2022-08-25T15:18:18.870Z,100635.34
2022-08-25T15:20:46.750Z,100640.94
2022-08-25T15:23:16.521Z,100630.59
2022-08-25T15:25:45.343Z,100635.03
2022-08-25T15:28:12.778Z,100633.88
2022-08-25T15:30:45.649Z,100624.34
2022-08-25T15:33:13.041Z,100622.41
2022-08-25T15:35:40.332Z,100620.59
2022-08-25T15:38:08.209Z,100626.00
2022-08-25T15:40:37.502Z,100619.59
2022-08-25T15:43:04.882Z,100612.38
2022-08-25T15:45:32.072Z,100618.47
2022-08-25T15:47:59.468Z,100615.00
2022-08-25T15:50:26.864Z,100615.16
2022-08-25T15:52:53.317Z,100612.19
2022-08-25T15:55:20.127Z,100615.63
2022-08-25T15:57:47.893Z,100612.69
2022-08-25T16:00:18.019Z,100607.78
2022-08-25T16:02:50.593Z,100614.47
2022-08-25T16:05:20.431Z,100608.72
2022-08-25T16:07:52.342Z,100608.25
2022-08-25T16:10:19.293Z,100596.53
2022-08-25T16:12:46.719Z,100600.47
2022-08-25T16:15:13.513Z,100595.19
2022-08-25T16:17:40.695Z,100592.84
2022-08-25T16:20:13.873Z,100592.16
2022-08-25T16:22:40.997Z,100589.50
2022-08-25T16:25:07.934Z,100588.44
2022-08-25T16:27:38.850Z,100591.81
2022-08-25T16:30:16.806Z,100589.13
2022-08-25T16:32:44.878Z,100590.88
2022-08-25T16:35:13.030Z,100594.88
2022-08-25T16:37:40.611Z,100586.09
2022-08-25T16:40:13.294Z,100584.84
2022-08-25T16:42:41.294Z,100580.84
2022-08-25T16:45:07.992Z,100579.94
2022-08-25T16:47:37.800Z,100581.50
2022-08-25T16:50:06.194Z,100581.41
2022-08-25T16:52:51.911Z,100570.94
2022-08-25T16:55:18.405Z,100574.97
2022-08-25T16:57:53.811Z,100569.72
2022-08-25T17:00:24.834Z,100564.72
2022-08-25T17:02:59.259Z,100559.69
2022-08-25T17:05:29.892Z,100567.06
2022-08-25T17:08:17.580Z,100559.59
2022-08-25T17:10:44.239Z,100559.38
2022-08-25T17:13:11.427Z,100561.97
2022-08-25T17:15:44.400Z,100566.97
2022-08-25T17:18:11.511Z,100563.13
2022-08-25T17:20:40.343Z,100552.84
2022-08-25T17:23:12.146Z,100556.59
2022-08-25T17:25:41.284Z,100559.88
2022-08-25T17:28:09.457Z,100558.34
2022-08-25T17:30:39.278Z,100556.34
2022-08-25T17:33:05.730Z,100564.75
2022-08-25T17:35:32.210Z,100563.09
2022-08-25T17:37:58.645Z,100571.09
2022-08-25T17:40:26.566Z,100557.78
2022-08-25T17:42:53.505Z,100568.84
2022-08-25T17:45:20.135Z,100564.28
2022-08-25T17:47:46.548Z,100564.19
2022-08-25T17:50:15.364Z,100572.00
2022-08-25T17:52:43.424Z,100577.34
2022-08-25T17:55:10.918Z,100571.38
2022-08-25T17:57:38.867Z,100578.81
2022-08-25T18:00:11.829Z,100580.66
2022-08-25T18:02:39.838Z,100581.97
2022-08-25T18:05:07.069Z,100579.22
2022-08-25T18:07:33.730Z,100585.59
2022-08-25T18:10:00.452Z,100587.91
2022-08-25T18:12:27.396Z,100583.44
2022-08-25T18:14:54.196Z,100587.31
2022-08-25T18:17:21.858Z,100580.81
2022-08-25T18:19:49.486Z,100594.25
2022-08-25T18:22:16.701Z,100584.06
2022-08-25T18:24:44.401Z,100585.94
2022-08-25T18:27:11.402Z,100588.25
2022-08-25T18:29:37.947Z,100587.72
2022-08-25T18:32:07.259Z,100598.88
2022-08-25T18:34:33.965Z,100588.00
2022-08-25T18:37:22.994Z,100590.09
2022-08-25T18:40:09.389Z,100593.66
2022-08-25T18:42:36.394Z,100593.91
2022-08-25T18:45:05.958Z,100601.00
2022-08-25T18:47:33.307Z,100597.81
2022-08-25T18:50:04.503Z,100606.56
2022-08-25T18:52:31.375Z,100604.19
2022-08-25T18:54:59.347Z,100611.44
2022-08-25T18:57:27.494Z,100609.84
2022-08-25T18:59:55.387Z,100607.91
2022-08-25T19:02:22.218Z,100614.34
2022-08-25T19:04:52.590Z,100604.38
2022-08-25T19:07:19.598Z,100618.81
2022-08-25T19:09:46.141Z,100617.41
2022-08-25T19:12:14.575Z,100618.41
2022-08-25T19:14:49.366Z,100621.41
2022-08-25T19:17:16.522Z,100618.81
2022-08-25T19:19:43.179Z,100607.59
2022-08-25T19:22:31.759Z,100613.03
2022-08-25T19:24:57.764Z,100612.38
2022-08-25T19:27:24.973Z,100615.03
2022-08-25T19:29:51.638Z,100614.94
2022-08-25T19:32:18.186Z,100610.09
2022-08-25T19:34:47.312Z,100615.19
2022-08-25T19:37:18.101Z,100613.94
2022-08-25T19:39:52.636Z,100624.31
2022-08-25T19:42:35.284Z,100619.66
2022-08-25T19:45:08.660Z,100620.03
2022-08-25T19:47:35.164Z,100614.56
2022-08-25T19:50:01.617Z,100618.53
2022-08-25T19:52:28.810Z,100619.44
2022-08-25T19:54:55.406Z,100622.59
2022-08-25T19:57:28.545Z,100630.97
2022-08-25T20:00:22.914Z,100624.97
2022-08-25T20:02:50.925Z,100620.09
2022-08-25T20:05:23.837Z,100622.41
2022-08-25T20:07:53.114Z,100623.59
2022-08-25T20:10:20.674Z,100630.34
2022-08-25T20:12:47.403Z,100625.16
2022-08-25T20:15:16.642Z,100629.72
2022-08-25T20:17:45.092Z,100638.38
2022-08-25T20:20:15.273Z,100632.38
2022-08-25T20:22:42.529Z,100631.91
2022-08-25T20:25:17.622Z,100630.84
2022-08-25T20:27:48.836Z,100630.88
2022-08-25T20:30:24.424Z,100633.69
2022-08-25T20:32:52.658Z,100631.28
2022-08-25T20:35:19.371Z,100627.75
2022-08-25T20:37:47.566Z,100630.25
2022-08-25T20:40:17.041Z,100634.44
2022-08-25T20:42:44.384Z,100631.16
2022-08-25T20:45:14.137Z,100627.84
2022-08-25T20:47:41.115Z,100636.75
2022-08-25T20:50:09.144Z,100633.72
2022-08-25T20:52:37.354Z,100633.50
2022-08-25T20:55:09.202Z,100628.56
2022-08-25T20:57:35.907Z,100628.31
2022-08-25T21:00:03.104Z,100635.25
2022-08-25T21:02:31.088Z,100634.19
2022-08-25T21:04:57.801Z,100635.00
2022-08-25T21:07:25.500Z,100636.72
2022-08-25T21:09:52.193Z,100634.81
2022-08-25T21:12:18.843Z,100625.75
2022-08-25T21:14:45.505Z,100626.59
2022-08-25T21:17:14.345Z,100633.84
2022-08-25T21:19:41.949Z,100625.59
2022-08-25T21:22:09.406Z,100624.50
2022-08-25T21:24:37.643Z,100620.94
2022-08-25T21:27:04.557Z,100627.34
2022-08-25T21:29:32.616Z,100617.13
2022-08-25T21:31:59.163Z,100628.22
2022-08-25T21:34:28.907Z,100618.28
2022-08-25T21:36:57.864Z,100619.16
2022-08-25T21:39:29.696Z,100623.63
2022-08-25T21:41:59.976Z,100624.47
2022-08-25T21:44:26.970Z,100616.19
2022-08-25T21:46:54.282Z,100618.72
2022-08-25T21:49:21.562Z,100613.22
2022-08-25T21:51:50.950Z,100612.13
2022-08-25T21:54:24.144Z,100619.34
2022-08-25T21:56:53.505Z,100625.44
2022-08-25T21:59:24.025Z,100624.34
2022-08-25T22:02:23.249Z,100622.75
2022-08-25T22:04:54.261Z,100623.59
2022-08-25T22:07:22.510Z,100618.91
2022-08-25T22:09:51.694Z,100621.66
2022-08-25T22:12:19.342Z,100617.81
2022-08-25T22:14:46.055Z,100611.19
2022-08-25T22:17:16.850Z,100612.56
2022-08-25T22:19:47.463Z,100609.84
2022-08-25T22:22:15.805Z,100619.81
2022-08-25T22:24:47.474Z,100618.69
2022-08-25T22:27:15.779Z,100612.94
2022-08-25T22:29:43.998Z,100620.66
2022-08-25T22:32:10.718Z,100615.69
2022-08-25T22:34:40.421Z,100615.16
2022-08-25T22:37:06.951Z,100613.78
2022-08-25T22:39:34.948Z,100620.69
2022-08-25T22:42:02.917Z,100610.19
2022-08-25T22:44:29.731Z,100609.66
2022-08-25T22:46:56.406Z,100614.63
2022-08-25T22:49:23.621Z,100613.53
2022-08-25T22:51:50.081Z,100610.22
2022-08-25T22:54:17.764Z,100611.88
2022-08-25T22:56:44.527Z,100614.34
2022-08-25T22:59:12.918Z,100609.38
2022-08-25T23:01:41.027Z,100615.72
2022-08-25T23:04:07.704Z,100619.88
2022-08-25T23:06:34.761Z,100610.22
2022-08-25T23:09:03.630Z,100614.09
2022-08-25T23:11:30.174Z,100618.25
2022-08-25T23:14:00.476Z,100612.97
2022-08-25T23:16:28.406Z,100609.66
2022-08-25T23:18:55.489Z,100614.66
2022-08-25T23:21:41.096Z,100610.53
2022-08-25T23:24:13.473Z,100619.63
2022-08-25T23:26:41.937Z,100607.47
2022-08-25T23:29:18.594Z,100611.34
2022-08-25T23:31:46.836Z,100613.00
2022-08-25T23:34:16.084Z,100606.09
2022-08-25T23:36:42.846Z,100608.31
2022-08-25T23:39:10.736Z,100605.00
2022-08-25T23:41:37.344Z,100611.91
2022-08-25T23:44:05.362Z,100599.75
2022-08-25T23:46:34.880Z,100606.66
2022-08-25T23:49:03.959Z,100596.16
2022-08-25T23:51:33.532Z,100600.03
2022-08-25T23:54:05.796Z,100599.75
2022-08-25T23:56:34.380Z,100595.63
2022-08-25T23:59:02.291Z,100597.00
